KNOW

Port Angeles CGas Airport

Port Angeles, Washington, USA
METAR KNOW 170230Z AUTO 00000KT 10SM CLR 11/08 A3024 RMK AO2 T01060081
Observed Flight Rules
Oct-17 @ 02:30 UTC (39 minutes ago) Visual Flight Rules
Visibility Clouds
10 miles
  • Clear skies
Temperatures Readings
Current 11°C / 52°F
Dewpoint 8°C / 46°F
Humidity 82%
Altimeter 30.24" Hg
Pressure 1024 hPa
Elevation 4
METAR KNOW 170230Z AUTO 00000KT 10SM CLR 11/08 A3024 RMK AO2 T01060081
Observed Flight Rules
Oct-17 @ 02:30 UTC
(39 minutes ago)
VFR
Clouds
  • Clear skies
Temperature Dewpoint
11°C / 52°F 8°C / 46°F
Humidity Altimeter Pressure
82% 30.24" Hg 1024 hPa